YSSY/SYD METAR and TAF weather

Enter ICAO airport designator
Station Type Date Time Source
YSSY METAR 2022/05/26 05:30 UTC NOAA

YSSY 260530Z 03009KT 9999 FEW030 20/14 Q1018


Station Type Date Time Source
YSSY Decoded METAR 2022/05/26 05:30 UTC NOAA

Sydney Airport, Australia (YSSY) 33-57S 151-11E 3M
May 26, 2022 - 01:30 AM EDT / 2022.05.26 0530 UTC
Wind: from the NNE (030 degrees) at 10 MPH (9 KT):0
Visibility: greater than 7 mile(s):0
Sky conditions: mostly clear
Temperature: 68 F (20 C)
Dew Point: 57 F (14 C)
Relative Humidity: 68%
Pressure (altimeter): 30.06 in. Hg (1018 hPa)
ob: YSSY 260530Z 03009KT 9999 FEW030 20/14 Q1018
cycle: 5

Station Type Date Time Source
YSSY TAF 2022/05/26 06:27 UTC NOAA

TAF
AMD YSSY 260522Z 2606/2712 03008KT 9999 FEW025
FM261000 33006KT 9999 FEW020
FM261400 30006KT 9999 FEW010
FM270100 34006KT CAVOK
FM270400 03007KT CAVOK
FM271000 30006KT 9999 FEW015 PROB30 2617/2622 0300 FG

Example: see airport list